createdAt,value
2023-03-12T00:02:23.448Z,2.45
2023-03-12T00:04:50.056Z,3.60
2023-03-12T00:07:16.781Z,2.40
2023-03-12T00:09:43.403Z,3.63
2023-03-12T00:12:10.076Z,1.63
2023-03-12T00:14:36.853Z,3.90
2023-03-12T00:17:03.585Z,2.97
2023-03-12T00:19:30.214Z,4.45
2023-03-12T00:21:56.903Z,2.88
2023-03-12T00:24:23.750Z,3.08
2023-03-12T00:26:50.341Z,1.63
2023-03-12T00:29:17.954Z,7.05
2023-03-12T00:31:44.820Z,2.88
2023-03-12T00:34:11.640Z,6.03
2023-03-12T00:36:38.475Z,2.75
2023-03-12T00:39:05.486Z,3.45
2023-03-12T00:41:32.301Z,2.60
2023-03-12T00:43:59.315Z,2.03
2023-03-12T00:46:26.251Z,3.53
2023-03-12T00:48:52.908Z,1.63
2023-03-12T00:51:20.071Z,2.60
2023-03-12T00:53:47.098Z,1.77
2023-03-12T00:56:14.290Z,2.85
2023-03-12T00:58:42.625Z,4.97
2023-03-12T01:01:09.568Z,4.63
2023-03-12T01:03:36.249Z,5.57
2023-03-12T01:06:03.510Z,3.70
2023-03-12T01:08:30.786Z,3.15
2023-03-12T01:10:57.429Z,3.85
2023-03-12T01:13:24.033Z,5.00
2023-03-12T01:15:50.607Z,2.45
2023-03-12T01:18:17.433Z,2.60
2023-03-12T01:20:44.089Z,4.63
2023-03-12T01:23:10.749Z,9.13
2023-03-12T01:25:37.344Z,3.47
2023-03-12T01:28:04.674Z,4.13
2023-03-12T01:30:31.709Z,1.77
2023-03-12T01:32:58.528Z,5.13
2023-03-12T01:35:25.829Z,8.18
2023-03-12T01:37:53.006Z,7.97
2023-03-12T01:40:25.981Z,7.97
2023-03-12T01:42:57.257Z,8.57
2023-03-12T01:46:17.535Z,11.85
2023-03-12T01:48:55.716Z,13.10
2023-03-12T01:51:26.084Z,12.70
2023-03-12T01:53:57.153Z,10.82
2023-03-12T01:56:29.434Z,12.02
2023-03-12T01:59:02.805Z,12.02
2023-03-12T02:01:30.358Z,12.43
2023-03-12T02:04:01.766Z,11.50
2023-03-12T02:07:01.033Z,4.90
2023-03-12T02:09:28.047Z,6.70
2023-03-12T02:11:54.936Z,7.43
2023-03-12T02:14:21.615Z,10.93
2023-03-12T02:16:53.176Z,4.03
2023-03-12T02:19:35.620Z,7.38
2023-03-12T02:22:03.098Z,3.95
2023-03-12T02:24:40.762Z,4.82
2023-03-12T02:27:09.072Z,3.15
2023-03-12T02:29:40.988Z,7.07
2023-03-12T02:32:18.541Z,3.90
2023-03-12T02:34:45.198Z,3.97
2023-03-12T02:37:11.776Z,6.22
2023-03-12T02:39:39.905Z,2.38
2023-03-12T02:42:06.699Z,7.18
2023-03-12T02:44:36.572Z,3.55
2023-03-12T02:47:04.259Z,5.15
2023-03-12T02:49:33.926Z,3.25
2023-03-12T02:52:01.615Z,3.17
2023-03-12T02:54:28.726Z,4.20
2023-03-12T02:56:55.577Z,6.53
2023-03-12T02:59:25.860Z,6.07
2023-03-12T03:01:58.728Z,5.50
2023-03-12T03:04:27.753Z,3.97
2023-03-12T03:06:54.746Z,5.13
2023-03-12T03:09:22.329Z,4.38
2023-03-12T03:11:50.114Z,3.72
2023-03-12T03:14:17.421Z,3.58
2023-03-12T03:16:54.055Z,7.25
2023-03-12T03:19:24.528Z,3.30
2023-03-12T03:21:54.224Z,4.80
2023-03-12T03:24:28.216Z,5.10
2023-03-12T03:27:04.908Z,4.28
2023-03-12T03:29:34.422Z,6.63
2023-03-12T03:32:10.999Z,4.78
2023-03-12T03:34:44.176Z,4.43
2023-03-12T03:37:10.987Z,2.60
2023-03-12T03:39:38.414Z,3.60
2023-03-12T03:42:05.085Z,3.58
2023-03-12T03:44:31.733Z,2.83
2023-03-12T03:46:58.771Z,2.08
2023-03-12T03:49:25.542Z,3.15
2023-03-12T03:52:02.132Z,7.97
2023-03-12T03:54:30.930Z,4.13
2023-03-12T03:56:57.506Z,3.30
2023-03-12T03:59:24.232Z,4.00
2023-03-12T04:01:52.746Z,3.58
2023-03-12T04:04:19.365Z,5.10
2023-03-12T04:06:54.413Z,6.57
2023-03-12T04:09:21.003Z,3.53
2023-03-12T04:11:47.640Z,5.03
2023-03-12T04:14:14.484Z,3.60
2023-03-12T04:16:41.062Z,2.85
2023-03-12T04:19:07.630Z,3.00
2023-03-12T04:21:34.310Z,3.83
2023-03-12T04:24:00.877Z,5.82
2023-03-12T04:26:27.497Z,6.47
2023-03-12T04:28:54.101Z,5.85
2023-03-12T04:31:20.842Z,5.18
2023-03-12T04:33:47.529Z,4.63
2023-03-12T04:36:15.340Z,6.70
2023-03-12T04:38:41.897Z,6.82
2023-03-12T04:41:12.607Z,8.48
2023-03-12T04:43:39.512Z,6.78
2023-03-12T04:46:06.777Z,7.85
2023-03-12T04:48:34.308Z,4.90
2023-03-12T04:51:02.132Z,7.75
2023-03-12T04:53:28.769Z,11.38
2023-03-12T04:55:55.458Z,6.88
2023-03-12T04:58:27.401Z,10.82
2023-03-12T05:00:54.052Z,6.22
2023-03-12T05:03:21.059Z,6.75
2023-03-12T05:05:50.691Z,10.27
2023-03-12T05:08:17.334Z,9.80
2023-03-12T05:10:46.873Z,8.10
2023-03-12T05:13:19.696Z,11.38
2023-03-12T05:15:47.516Z,8.60
2023-03-12T05:18:14.848Z,6.43
2023-03-12T05:20:41.537Z,6.95
2023-03-12T05:23:08.238Z,8.93
2023-03-12T05:25:40.389Z,8.82
2023-03-12T05:28:07.651Z,8.35
2023-03-12T05:30:34.256Z,9.25
2023-03-12T05:33:00.907Z,10.35
2023-03-12T05:35:27.488Z,5.35
2023-03-12T05:37:54.072Z,8.20
2023-03-12T05:40:20.632Z,7.85
2023-03-12T05:42:47.220Z,8.45
2023-03-12T05:45:13.898Z,11.68
2023-03-12T05:47:40.556Z,10.70
2023-03-12T05:50:09.380Z,8.48
2023-03-12T05:52:44.361Z,6.90
2023-03-12T05:55:11.503Z,8.10
2023-03-12T05:57:38.349Z,10.68
2023-03-12T06:00:06.096Z,10.50
2023-03-12T06:02:32.722Z,8.38
2023-03-12T06:04:59.315Z,6.93
2023-03-12T06:07:26.070Z,6.28
2023-03-12T06:09:52.694Z,6.68
2023-03-12T06:12:19.267Z,7.28
2023-03-12T06:14:46.326Z,8.85
2023-03-12T06:17:13.065Z,8.25
2023-03-12T06:19:40.937Z,10.35
2023-03-12T06:22:07.500Z,9.98
2023-03-12T06:24:34.102Z,8.95
2023-03-12T06:27:00.667Z,9.85
2023-03-12T06:29:27.405Z,6.25
2023-03-12T06:31:54.062Z,13.13
2023-03-12T06:34:23.187Z,10.88
2023-03-12T06:36:50.010Z,10.15
2023-03-12T06:39:16.622Z,11.23
2023-03-12T06:41:43.215Z,13.77
2023-03-12T06:44:09.831Z,9.85
2023-03-12T06:46:36.967Z,13.55
2023-03-12T06:49:06.047Z,13.02
2023-03-12T06:51:33.784Z,37.90
2023-03-12T06:54:02.395Z,13.93
2023-03-12T06:56:30.694Z,20.92
2023-03-12T06:58:57.560Z,10.70
2023-03-12T07:01:31.835Z,9.38
2023-03-12T07:03:59.430Z,8.98
2023-03-12T07:06:26.150Z,11.35
2023-03-12T07:08:52.870Z,13.27
2023-03-12T07:11:19.499Z,15.23
2023-03-12T07:13:47.133Z,13.43
2023-03-12T07:16:14.076Z,14.10
2023-03-12T07:18:41.220Z,13.85
2023-03-12T07:21:07.850Z,15.70
2023-03-12T07:23:34.536Z,16.83
2023-03-12T07:26:04.044Z,10.95
2023-03-12T07:28:30.926Z,19.40
2023-03-12T07:31:05.022Z,31.40
2023-03-12T07:33:32.305Z,14.07
2023-03-12T07:35:59.443Z,10.63
2023-03-12T07:38:26.732Z,6.82
2023-03-12T07:40:55.790Z,8.18
2023-03-12T07:43:23.828Z,10.13
2023-03-12T07:45:51.144Z,12.38
2023-03-12T07:48:21.039Z,11.95
2023-03-12T07:50:47.809Z,12.10
2023-03-12T07:53:14.542Z,11.63
2023-03-12T07:55:46.176Z,5.90
2023-03-12T07:58:14.201Z,15.13
2023-03-12T08:00:41.247Z,10.32
2023-03-12T08:03:08.564Z,13.13
2023-03-12T08:05:36.119Z,7.07
2023-03-12T08:08:02.889Z,11.27
2023-03-12T08:10:29.634Z,9.32
2023-03-12T08:12:56.448Z,12.43
2023-03-12T08:15:23.089Z,8.25
2023-03-12T08:17:49.735Z,6.68
2023-03-12T08:20:17.360Z,8.55
2023-03-12T08:22:44.110Z,6.28
2023-03-12T08:25:11.407Z,7.82
2023-03-12T08:27:38.177Z,10.90
2023-03-12T08:30:06.516Z,7.65
2023-03-12T08:32:33.561Z,7.72
2023-03-12T08:35:00.290Z,8.20
2023-03-12T08:37:27.056Z,5.15
2023-03-12T08:39:53.750Z,9.93
2023-03-12T08:42:20.410Z,9.05
2023-03-12T08:44:46.989Z,7.70
2023-03-12T08:47:13.678Z,7.07
2023-03-12T08:49:40.271Z,8.68
2023-03-12T08:52:07.705Z,6.90
2023-03-12T08:54:34.383Z,8.25
2023-03-12T08:57:00.967Z,6.80
2023-03-12T08:59:27.567Z,9.02
2023-03-12T09:01:54.243Z,6.72
2023-03-12T09:04:21.003Z,9.38
2023-03-12T09:06:47.647Z,7.93
2023-03-12T09:09:14.318Z,5.10
2023-03-12T09:11:41.064Z,7.95
2023-03-12T09:14:58.041Z,10.02
2023-03-12T09:16:54.868Z,7.45
2023-03-12T09:19:21.536Z,8.57
2023-03-12T09:21:48.255Z,6.53
2023-03-12T09:24:16.910Z,7.10
2023-03-12T09:26:47.816Z,3.55
2023-03-12T09:29:14.410Z,4.35
2023-03-12T09:31:41.006Z,3.92
2023-03-12T09:34:07.680Z,3.13
2023-03-12T09:36:34.345Z,3.78
2023-03-12T09:39:01.881Z,14.10
2023-03-12T09:41:34.354Z,4.40
2023-03-12T09:44:35.192Z,3.83
2023-03-12T09:47:09.296Z,4.13
2023-03-12T09:49:46.525Z,3.03
2023-03-12T09:52:41.586Z,3.22
2023-03-12T09:55:20.131Z,3.65
2023-03-12T09:57:50.355Z,3.42
2023-03-12T10:00:22.139Z,2.80
2023-03-12T10:03:27.703Z,4.07
2023-03-12T10:06:11.972Z,3.00
2023-03-12T10:09:07.284Z,4.70
2023-03-12T10:12:10.534Z,3.80
2023-03-12T10:15:21.823Z,3.03
2023-03-12T10:18:31.564Z,2.75
2023-03-12T10:21:20.060Z,2.92
2023-03-12T10:24:25.186Z,4.15
2023-03-12T10:26:57.554Z,3.45
2023-03-12T10:29:32.397Z,5.45
2023-03-12T10:32:17.737Z,3.90
2023-03-12T10:34:52.056Z,4.68
2023-03-12T10:37:42.310Z,4.80
2023-03-12T10:40:20.177Z,5.05
2023-03-12T10:42:47.621Z,4.07
2023-03-12T10:45:38.675Z,3.40
2023-03-12T10:48:09.150Z,3.70
2023-03-12T10:50:40.912Z,3.60
2023-03-12T10:53:29.798Z,3.85
2023-03-12T10:56:13.406Z,4.22
2023-03-12T10:58:47.200Z,4.72
2023-03-12T11:01:16.951Z,3.20
2023-03-12T11:03:44.377Z,5.00
2023-03-12T11:06:29.845Z,5.28
2023-03-12T11:09:22.947Z,5.78
2023-03-12T11:11:50.814Z,5.20
2023-03-12T11:14:25.547Z,4.15
2023-03-12T11:16:54.289Z,3.47
2023-03-12T11:19:33.060Z,3.40
2023-03-12T11:22:08.027Z,3.70
2023-03-12T11:24:35.851Z,4.00
2023-03-12T11:27:07.939Z,3.63
2023-03-12T11:29:54.330Z,4.97
2023-03-12T11:32:46.040Z,4.95
2023-03-12T11:35:16.302Z,6.22
2023-03-12T11:38:21.630Z,3.28
2023-03-12T11:40:57.530Z,3.28
2023-03-12T11:43:44.451Z,3.83
2023-03-12T11:46:34.190Z,3.13
2023-03-12T11:49:40.285Z,3.53
2023-03-12T11:52:34.432Z,3.33
2023-03-12T11:55:20.388Z,4.75
2023-03-12T11:58:20.540Z,4.90
2023-03-12T12:01:10.130Z,6.18
2023-03-12T12:03:44.474Z,3.83
2023-03-12T12:06:40.902Z,4.88
2023-03-12T12:09:21.533Z,4.78
2023-03-12T12:12:12.159Z,5.07
2023-03-12T12:15:06.228Z,3.42
2023-03-12T12:17:57.129Z,4.50
2023-03-12T12:21:05.995Z,3.42
2023-03-12T12:23:54.701Z,2.97
2023-03-12T12:26:52.169Z,4.88
2023-03-12T12:29:36.859Z,4.43
2023-03-12T12:32:12.989Z,2.92
2023-03-12T12:35:24.692Z,4.25
2023-03-12T12:38:00.136Z,2.10
2023-03-12T12:40:42.613Z,2.28
2023-03-12T12:43:42.215Z,6.95
2023-03-12T12:46:23.136Z,3.15
2023-03-12T12:49:10.935Z,6.78
2023-03-12T12:51:44.322Z,4.93
2023-03-12T12:54:31.453Z,5.13
2023-03-12T12:57:12.864Z,6.88
2023-03-12T13:00:10.944Z,4.13
2023-03-12T13:02:42.079Z,3.92
2023-03-12T13:05:41.909Z,7.20
2023-03-12T13:08:42.130Z,6.13
2023-03-12T13:11:19.386Z,6.00
2023-03-12T13:14:10.585Z,5.57
2023-03-12T13:16:44.436Z,3.85
2023-03-12T13:19:14.033Z,2.80
2023-03-12T13:22:06.098Z,5.20
2023-03-12T13:25:14.772Z,4.68
2023-03-12T13:27:44.819Z,4.07
2023-03-12T13:30:33.308Z,6.03
2023-03-12T13:33:18.159Z,5.60
2023-03-12T13:36:17.395Z,2.97
2023-03-12T13:39:07.536Z,3.42
2023-03-12T13:41:49.720Z,5.90
2023-03-12T13:44:27.761Z,4.20
2023-03-12T13:47:02.899Z,4.68
2023-03-12T13:50:04.546Z,5.82
2023-03-12T13:52:31.086Z,4.93
2023-03-12T13:55:02.863Z,6.78
2023-03-12T13:57:43.157Z,5.25
2023-03-12T14:00:31.381Z,4.43
2023-03-12T14:03:04.681Z,5.78
2023-03-12T14:05:44.926Z,4.40
2023-03-12T14:08:28.664Z,7.03
2023-03-12T14:11:52.842Z,5.10
2023-03-12T14:14:49.697Z,4.40
2023-03-12T14:17:27.179Z,4.57
2023-03-12T14:20:05.314Z,4.43
2023-03-12T14:22:36.101Z,4.95
2023-03-12T14:25:33.337Z,5.55
2023-03-12T14:28:02.511Z,4.53
2023-03-12T14:30:57.122Z,3.95
2023-03-12T14:33:25.920Z,5.47
2023-03-12T14:36:11.962Z,5.70
2023-03-12T14:38:45.053Z,3.85
2023-03-12T14:41:20.696Z,4.53
2023-03-12T14:43:52.871Z,7.95
2023-03-12T14:46:23.088Z,5.07
2023-03-12T14:48:54.842Z,9.73
2023-03-12T14:51:29.546Z,6.65
2023-03-12T14:53:56.924Z,4.35
2023-03-12T14:56:34.702Z,4.97
2023-03-12T14:59:21.076Z,6.22
2023-03-12T15:01:48.110Z,4.53
2023-03-12T15:04:18.704Z,5.45
2023-03-12T15:06:55.788Z,7.10
2023-03-12T15:09:26.613Z,8.75
2023-03-12T15:12:05.079Z,9.73
2023-03-12T15:14:41.117Z,7.47
2023-03-12T15:17:10.322Z,4.57
2023-03-12T15:19:40.134Z,13.27
2023-03-12T15:22:15.816Z,8.20
2023-03-12T15:24:43.333Z,5.47
2023-03-12T15:27:25.013Z,9.68
2023-03-12T15:29:52.770Z,7.60
2023-03-12T15:32:22.449Z,5.47
2023-03-12T15:34:49.623Z,9.00
2023-03-12T15:37:34.746Z,6.07
2023-03-12T15:40:06.648Z,6.18
2023-03-12T15:42:40.791Z,7.97
2023-03-12T15:45:23.289Z,8.73
2023-03-12T15:47:52.602Z,9.75
2023-03-12T15:50:25.992Z,6.68
2023-03-12T15:53:18.696Z,6.18
2023-03-12T15:56:01.685Z,7.90
2023-03-12T15:58:38.168Z,8.27
2023-03-12T16:01:17.440Z,6.63
2023-03-12T16:03:45.763Z,10.10
2023-03-12T16:06:23.155Z,7.80
2023-03-12T16:09:00.964Z,7.45
2023-03-12T16:11:30.802Z,8.95
2023-03-12T16:14:19.456Z,9.98
2023-03-12T16:16:46.845Z,6.25
2023-03-12T16:19:16.392Z,8.43
2023-03-12T16:21:43.818Z,11.57
2023-03-12T16:24:11.105Z,10.80
2023-03-12T16:26:58.109Z,9.52
2023-03-12T16:29:39.531Z,8.20
2023-03-12T16:32:13.979Z,10.20
2023-03-12T16:34:41.526Z,13.27
2023-03-12T16:37:12.665Z,12.32
2023-03-12T16:39:39.785Z,5.30
2023-03-12T16:42:24.866Z,6.43
2023-03-12T16:44:51.586Z,10.50
2023-03-12T16:47:18.261Z,14.50
2023-03-12T16:49:45.697Z,13.10
2023-03-12T16:52:19.200Z,12.82
2023-03-12T16:54:48.580Z,10.88
2023-03-12T16:57:33.767Z,15.77
2023-03-12T17:00:07.702Z,10.80
2023-03-12T17:02:35.620Z,18.95
2023-03-12T17:05:02.539Z,15.18
2023-03-12T17:07:29.327Z,16.08
2023-03-12T17:09:56.419Z,13.00
2023-03-12T17:12:36.237Z,13.63
2023-03-12T17:15:08.773Z,17.23
2023-03-12T17:17:35.398Z,12.07
2023-03-12T17:20:02.344Z,10.90
2023-03-12T17:22:28.971Z,14.20
2023-03-12T17:24:55.694Z,9.15
2023-03-12T17:27:22.396Z,10.70
2023-03-12T17:29:48.958Z,11.63
2023-03-12T17:32:15.600Z,13.68
2023-03-12T17:34:42.526Z,8.57
2023-03-12T17:37:09.128Z,9.38
2023-03-12T17:39:35.794Z,14.52
2023-03-12T17:42:03.705Z,11.68
2023-03-12T17:44:34.685Z,11.88
2023-03-12T17:47:02.081Z,13.30
2023-03-12T17:49:29.423Z,14.40
2023-03-12T17:51:56.272Z,14.02
2023-03-12T17:54:23.177Z,15.38
2023-03-12T17:56:49.851Z,14.70
2023-03-12T17:59:16.526Z,17.05
2023-03-12T18:01:43.144Z,14.65
2023-03-12T18:04:09.756Z,17.33
2023-03-12T18:06:41.242Z,16.85
2023-03-12T18:09:07.857Z,14.05
2023-03-12T18:11:34.457Z,19.48
2023-03-12T18:14:01.017Z,19.73
2023-03-12T18:16:27.695Z,14.52
2023-03-12T18:18:54.388Z,16.63
2023-03-12T18:21:20.981Z,15.55
2023-03-12T18:23:47.632Z,13.80
2023-03-12T18:26:14.310Z,15.32
2023-03-12T18:28:40.893Z,11.18
2023-03-12T18:31:07.530Z,14.38
2023-03-12T18:33:36.201Z,13.63
2023-03-12T18:36:04.308Z,14.52
2023-03-12T18:38:32.495Z,13.85
2023-03-12T18:41:10.476Z,18.30
2023-03-12T18:43:37.269Z,17.95
2023-03-12T18:46:05.092Z,18.77
2023-03-12T18:48:31.892Z,19.23
2023-03-12T18:50:58.586Z,15.77
2023-03-12T18:53:25.242Z,20.20
2023-03-12T18:56:00.952Z,18.25
2023-03-12T18:58:28.225Z,14.05
2023-03-12T19:00:58.050Z,14.57
2023-03-12T19:03:25.781Z,20.63
2023-03-12T19:06:14.532Z,25.10
2023-03-12T19:08:41.649Z,22.65
2023-03-12T19:11:14.836Z,20.60
2023-03-12T19:13:42.017Z,19.15
2023-03-12T19:16:11.400Z,21.50
2023-03-12T19:18:39.142Z,14.07
2023-03-12T19:21:08.598Z,18.15
2023-03-12T19:23:35.659Z,21.85
2023-03-12T19:26:03.068Z,16.42
2023-03-12T19:28:31.054Z,17.25
2023-03-12T19:31:07.116Z,18.20
2023-03-12T19:33:34.046Z,21.13
2023-03-12T19:36:00.900Z,23.30
2023-03-12T19:38:28.050Z,12.70
2023-03-12T19:40:57.416Z,23.52
2023-03-12T19:43:25.156Z,14.15
2023-03-12T19:45:54.596Z,18.80
2023-03-12T19:48:22.541Z,17.80
2023-03-12T19:50:49.560Z,20.40
2023-03-12T19:53:17.592Z,17.90
2023-03-12T19:55:47.933Z,19.63
2023-03-12T19:58:15.460Z,26.15
2023-03-12T20:00:42.881Z,14.82
2023-03-12T20:03:10.181Z,17.33
2023-03-12T20:05:36.995Z,19.73
2023-03-12T20:08:04.052Z,20.45
2023-03-12T20:10:32.171Z,16.42
2023-03-12T20:12:59.136Z,15.43
2023-03-12T20:15:26.358Z,24.25
2023-03-12T20:17:54.644Z,16.52
2023-03-12T20:20:21.279Z,14.52
2023-03-12T20:22:47.914Z,23.38
2023-03-12T20:25:17.135Z,16.90
2023-03-12T20:27:43.786Z,21.40
2023-03-12T20:30:11.310Z,17.23
2023-03-12T20:32:37.923Z,23.13
2023-03-12T20:35:05.117Z,22.38
2023-03-12T20:37:31.752Z,15.90
2023-03-12T20:39:58.333Z,17.33
2023-03-12T20:42:32.457Z,18.95
2023-03-12T20:44:59.055Z,11.93
2023-03-12T20:47:25.641Z,17.80
2023-03-12T20:49:52.335Z,17.40
2023-03-12T20:52:18.901Z,15.38
2023-03-12T20:54:45.468Z,21.88
2023-03-12T20:57:12.231Z,17.42
2023-03-12T20:59:38.930Z,22.75
2023-03-12T21:02:05.594Z,21.33
2023-03-12T21:04:32.314Z,18.05
2023-03-12T21:06:58.888Z,18.33
2023-03-12T21:09:25.519Z,20.17
2023-03-12T21:11:52.159Z,18.63
2023-03-12T21:14:18.797Z,15.52
2023-03-12T21:16:47.464Z,18.65
2023-03-12T21:19:14.155Z,17.25
2023-03-12T21:21:40.986Z,17.10
2023-03-12T21:24:07.586Z,14.07
2023-03-12T21:26:34.202Z,15.27
2023-03-12T21:29:00.797Z,18.80
2023-03-12T21:31:27.388Z,19.67
2023-03-12T21:33:58.452Z,17.25
2023-03-12T21:36:29.756Z,13.82
2023-03-12T21:38:56.324Z,20.70
2023-03-12T21:41:23.633Z,17.60
2023-03-12T21:43:50.612Z,18.85
2023-03-12T21:46:20.331Z,13.30
2023-03-12T21:48:48.303Z,11.93
2023-03-12T21:51:16.980Z,20.02
2023-03-12T21:53:44.193Z,16.52
2023-03-12T21:56:11.623Z,14.48
2023-03-12T21:58:38.266Z,14.75
2023-03-12T22:01:14.138Z,21.27
2023-03-12T22:03:42.293Z,11.98
2023-03-12T22:06:10.129Z,14.00
2023-03-12T22:08:37.993Z,19.90
2023-03-12T22:11:07.019Z,18.83
2023-03-12T22:13:34.248Z,16.77
2023-03-12T22:16:08.050Z,13.00
2023-03-12T22:18:43.110Z,21.23
2023-03-12T22:21:18.637Z,17.33
2023-03-12T22:23:47.686Z,16.88
2023-03-12T22:26:14.713Z,18.42
2023-03-12T22:28:41.422Z,17.48
2023-03-12T22:31:14.678Z,19.65
2023-03-12T22:33:41.288Z,23.38
2023-03-12T22:36:11.185Z,18.83
2023-03-12T22:38:39.115Z,17.48
2023-03-12T22:41:14.920Z,24.73
2023-03-12T22:43:42.104Z,22.20
2023-03-12T22:46:08.836Z,19.27
2023-03-12T22:48:36.647Z,16.05
2023-03-12T22:51:05.334Z,14.48
2023-03-12T22:53:33.231Z,13.13
2023-03-12T22:56:06.521Z,15.68
2023-03-12T22:58:33.643Z,19.55
2023-03-12T23:01:15.462Z,15.45
2023-03-12T23:03:43.841Z,14.25
2023-03-12T23:06:20.604Z,14.98
2023-03-12T23:08:48.045Z,12.52
2023-03-12T23:11:15.912Z,14.35
2023-03-12T23:13:44.913Z,19.63
2023-03-12T23:16:16.626Z,21.92
2023-03-12T23:18:44.332Z,15.65
2023-03-12T23:21:15.409Z,15.52
2023-03-12T23:23:43.837Z,20.52
2023-03-12T23:26:21.136Z,14.48
2023-03-12T23:28:47.819Z,17.55
2023-03-12T23:31:15.866Z,17.92
2023-03-12T23:33:43.341Z,19.85
2023-03-12T23:36:16.708Z,18.48
2023-03-12T23:38:44.621Z,18.38
2023-03-12T23:41:15.832Z,17.70
2023-03-12T23:43:42.904Z,20.13
2023-03-12T23:46:11.492Z,13.88
2023-03-12T23:48:39.140Z,20.33
2023-03-12T23:51:11.863Z,19.35
2023-03-12T23:53:40.200Z,15.27
2023-03-12T23:56:11.858Z,18.52
2023-03-12T23:58:38.786Z,15.82
